Time,TemperatureF,DewpointF,PressureIn,WindDirection,WindDirectionDegrees,WindSpeedMPH,WindSpeedGustMPH,Humidity,HourlyPrecipIn,Conditions,Clouds,dailyrainin,SoftwareType,DateUTC
2013-06-14 00:02:00,55.0,55.0,30.36,SE,136,4.0,5.0,100,0.00,,,0.51,,2013-06-14 07:02:00,
2013-06-14 00:12:00,55.0,55.0,30.36,SE,132,3.0,5.0,100,0.00,,,0.51,,2013-06-14 07:12:00,
2013-06-14 00:22:00,55.0,55.0,30.36,SE,132,3.0,5.0,100,0.00,,,0.51,,2013-06-14 07:22:00,
2013-06-14 00:33:00,55.0,55.0,30.36,SSE,157,2.0,4.0,100,0.00,,,0.51,,2013-06-14 07:33:00,
2013-06-14 00:43:00,55.0,55.0,30.36,SSE,153,2.0,4.0,100,0.00,,,0.51,,2013-06-14 07:43:00,
2013-06-14 00:53:00,55.0,55.0,30.36,SSE,153,2.0,4.0,100,0.00,,,0.51,,2013-06-14 07:53:00,
2013-06-14 01:01:00,55.0,55.0,30.35,SE,126,3.0,6.0,100,0.00,,,0.51,,2013-06-14 08:01:00,
2013-06-14 01:12:00,55.0,55.0,30.35,SE,145,3.0,5.0,100,0.00,,,0.51,,2013-06-14 08:12:00,
2013-06-14 01:22:00,55.0,55.0,30.35,ESE,108,4.0,5.0,100,0.00,,,0.51,,2013-06-14 08:22:00,
2013-06-14 01:33:00,55.0,55.0,30.35,ESE,108,4.0,5.0,100,0.00,,,0.51,,2013-06-14 08:33:00,
2013-06-14 01:43:00,55.0,55.0,30.35,SE,129,2.0,4.0,100,0.00,,,0.51,,2013-06-14 08:43:00,
2013-06-14 01:52:00,55.0,55.0,30.35,ESE,121,1.0,3.0,100,0.00,,,0.51,,2013-06-14 08:52:00,
2013-06-14 02:01:00,55.0,55.0,30.35,ESE,121,1.0,3.0,100,0.00,,,0.51,,2013-06-14 09:01:00,
2013-06-14 02:11:00,55.0,55.0,30.35,ESE,117,1.0,4.0,100,0.00,,,0.50,,2013-06-14 09:11:00,
2013-06-14 02:22:00,55.0,55.0,30.35,ESE,117,1.0,4.0,100,0.00,,,0.50,,2013-06-14 09:22:00,
2013-06-14 02:33:00,55.0,55.0,30.34,ENE,71,1.0,3.0,100,0.00,,,0.50,,2013-06-14 09:33:00,
2013-06-14 02:43:00,55.0,55.0,30.33,SE,128,3.0,4.0,100,0.00,,,0.50,,2013-06-14 09:43:00,
2013-06-14 02:52:00,55.0,55.0,30.33,SE,128,3.0,4.0,100,0.00,,,0.50,,2013-06-14 09:52:00,
2013-06-14 03:01:00,55.0,55.0,30.33,SE,137,3.0,4.0,100,0.00,,,0.50,,2013-06-14 10:01:00,
2013-06-14 03:11:00,55.0,55.0,30.33,East,97,0.0,4.0,100,0.00,,,0.50,,2013-06-14 10:11:00,
2013-06-14 03:21:00,55.0,55.0,30.32,ESE,112,1.0,3.0,100,0.00,,,0.50,,2013-06-14 10:21:00,
2013-06-14 03:34:00,55.0,55.0,30.32,ESE,112,1.0,3.0,100,0.00,,,0.50,,2013-06-14 10:34:00,
2013-06-14 03:43:00,55.0,55.0,30.32,East,100,1.0,3.0,100,0.00,,,0.50,,2013-06-14 10:43:00,
2013-06-14 03:52:00,55.0,55.0,30.31,ENE,67,0.0,1.0,100,0.00,,,0.50,,2013-06-14 10:52:00,
2013-06-14 04:01:00,55.0,55.0,30.31,ENE,67,0.0,1.0,100,0.00,,,0.50,,2013-06-14 11:01:00,
2013-06-14 04:11:00,55.0,55.0,30.31,SE,127,0.0,2.0,100,0.00,,,0.45,,2013-06-14 11:11:00,
2013-06-14 04:22:00,55.0,55.0,30.31,SE,127,0.0,2.0,100,0.00,,,0.45,,2013-06-14 11:22:00,
2013-06-14 04:32:00,55.0,55.0,30.31,ESE,107,1.0,3.0,100,0.00,,,0.45,,2013-06-14 11:32:00,
2013-06-14 04:43:00,54.0,54.0,30.31,ESE,107,1.0,2.0,100,0.00,,,0.45,,2013-06-14 11:43:00,
2013-06-14 04:52:00,54.0,54.0,30.31,ESE,107,1.0,2.0,100,0.00,,,0.45,,2013-06-14 11:52:00,
2013-06-14 05:01:00,55.0,55.0,30.31,ESE,107,0.0,1.0,100,0.00,,,0.45,,2013-06-14 12:01:00,
2013-06-14 05:11:00,54.0,54.0,30.31,NE,49,0.0,3.0,100,0.00,,,0.36,,2013-06-14 12:11:00,
2013-06-14 05:22:00,54.0,54.0,30.31,NE,49,0.0,3.0,100,0.00,,,0.36,,2013-06-14 12:22:00,
2013-06-14 05:32:00,54.0,54.0,30.31,SE,131,2.0,3.0,100,0.00,,,0.36,,2013-06-14 12:32:00,
2013-06-14 05:43:00,54.0,54.0,30.31,SE,133,3.0,4.0,100,0.00,,,0.36,,2013-06-14 12:43:00,
2013-06-14 05:52:00,54.0,54.0,30.31,SE,133,3.0,4.0,100,0.00,,,0.36,,2013-06-14 12:52:00,
2013-06-14 06:01:00,54.0,54.0,30.31,SE,125,2.0,3.0,100,0.00,,,0.36,,2013-06-14 13:01:00,
2013-06-14 06:11:00,54.0,54.0,30.31,SSE,155,2.0,3.0,100,0.00,,,0.35,,2013-06-14 13:11:00,
2013-06-14 06:22:00,54.0,54.0,30.31,SE,141,1.0,3.0,100,0.00,,,0.35,,2013-06-14 13:22:00,
2013-06-14 06:33:00,54.0,54.0,30.31,SE,141,1.0,3.0,100,0.00,,,0.35,,2013-06-14 13:33:00,
2013-06-14 06:43:00,54.0,54.0,30.31,SE,128,3.0,5.0,100,0.00,,,0.35,,2013-06-14 13:43:00,
2013-06-14 06:52:00,54.0,54.0,30.31,ESE,114,3.0,5.0,100,0.00,,,0.35,,2013-06-14 13:52:00,
2013-06-14 07:02:00,54.0,54.0,30.31,ESE,114,3.0,5.0,100,0.00,,,0.35,,2013-06-14 14:02:00,
2013-06-14 07:11:00,54.0,54.0,30.31,East,96,3.0,5.0,100,0.00,,,0.27,,2013-06-14 14:11:00,
2013-06-14 07:22:00,54.0,54.0,30.30,ESE,106,3.0,5.0,100,0.00,,,0.27,,2013-06-14 14:22:00,
2013-06-14 07:33:00,54.0,54.0,30.30,ESE,106,3.0,5.0,100,0.00,,,0.27,,2013-06-14 14:33:00,
2013-06-14 07:43:00,54.0,54.0,30.30,ENE,76,4.0,6.0,100,0.00,,,0.27,,2013-06-14 14:43:00,
2013-06-14 07:52:00,54.0,54.0,30.30,ENE,76,4.0,6.0,100,0.00,,,0.27,,2013-06-14 14:52:00,
2013-06-14 08:01:00,55.0,55.0,30.30,NE,42,3.0,7.0,100,0.00,,,0.27,,2013-06-14 15:01:00,
2013-06-14 08:11:00,55.0,55.0,30.30,East,90,4.0,7.0,100,0.00,,,0.20,,2013-06-14 15:11:00,
2013-06-14 08:22:00,56.0,56.0,30.30,ENE,66,3.0,7.0,100,0.00,,,0.20,,2013-06-14 15:22:00,
2013-06-14 08:33:00,56.0,56.0,30.30,ENE,66,3.0,7.0,100,0.00,,,0.20,,2013-06-14 15:33:00,
2013-06-14 08:43:00,58.0,58.0,30.30,ENE,59,3.0,7.0,100,0.00,,,0.20,,2013-06-14 15:43:00,
2013-06-14 08:52:00,58.0,58.0,30.30,ENE,59,3.0,7.0,100,0.00,,,0.20,,2013-06-14 15:52:00,
2013-06-14 09:01:00,58.0,58.0,30.29,ESE,108,3.0,11.0,100,0.00,,,0.20,,2013-06-14 16:01:00,
2013-06-14 09:22:00,60.0,60.0,30.29,East,79,3.0,10.0,100,0.00,,,0.07,,2013-06-14 16:22:00,
2013-06-14 10:22:00,59.0,59.0,30.28,West,268,5.0,9.0,100,0.00,,,0.06,,2013-06-14 17:22:00,
2013-06-14 10:34:00,59.0,59.0,30.28,West,268,5.0,9.0,100,0.00,,,0.06,,2013-06-14 17:34:00,
2013-06-14 10:43:00,57.0,57.0,30.28,WNW,294,4.0,7.0,100,0.00,,,0.06,,2013-06-14 17:43:00,
2013-06-14 10:53:00,57.0,57.0,30.28,WNW,294,4.0,7.0,100,0.00,,,0.06,,2013-06-14 17:53:00,
2013-06-14 11:02:00,57.0,57.0,30.27,West,268,5.0,7.0,100,0.00,,,0.06,,2013-06-14 18:02:00,
2013-06-14 11:11:00,57.0,57.0,30.27,WNW,290,6.0,8.0,100,0.00,,,0.06,,2013-06-14 18:11:00,
2013-06-14 11:21:00,57.0,57.0,30.27,WNW,290,6.0,8.0,100,0.00,,,0.06,,2013-06-14 18:21:00,
2013-06-14 11:32:00,57.0,57.0,30.27,WNW,290,6.0,8.0,100,0.00,,,0.06,,2013-06-14 18:32:00,
2013-06-14 11:42:00,58.0,58.0,30.26,WNW,291,6.0,10.0,100,0.00,,,0.06,,2013-06-14 18:42:00,
2013-06-14 11:52:00,58.0,58.0,30.26,WNW,291,6.0,10.0,100,0.00,,,0.06,,2013-06-14 18:52:00,
2013-06-14 12:01:00,58.0,58.0,30.26,West,261,6.0,12.0,100,0.00,,,0.06,,2013-06-14 19:01:00,
2013-06-14 12:11:00,59.0,59.0,30.25,NW,321,9.0,14.0,100,0.00,,,0.06,,2013-06-14 19:11:00,
2013-06-14 12:21:00,59.0,59.0,30.25,NW,321,9.0,14.0,100,0.00,,,0.06,,2013-06-14 19:21:00,
2013-06-14 12:32:00,58.0,58.0,30.25,West,278,12.0,16.0,100,0.00,,,0.06,,2013-06-14 19:32:00,
2013-06-14 12:43:00,59.0,59.0,30.25,WNW,300,13.0,17.0,100,0.00,,,0.06,,2013-06-14 19:43:00,
2013-06-14 12:53:00,59.0,59.0,30.25,WNW,300,13.0,17.0,100,0.00,,,0.06,,2013-06-14 19:53:00,
2013-06-14 13:01:00,60.0,60.0,30.24,NW,304,13.0,16.0,100,0.00,,,0.06,,2013-06-14 20:01:00,
2013-06-14 13:11:00,60.0,60.0,30.23,NNW,328,12.0,17.0,100,0.00,,,0.06,,2013-06-14 20:11:00,
2013-06-14 13:21:00,60.0,60.0,30.23,NW,309,12.0,19.0,100,0.00,,,0.06,,2013-06-14 20:21:00,
2013-06-14 13:33:00,60.0,60.0,30.23,NW,309,12.0,19.0,100,0.00,,,0.06,,2013-06-14 20:33:00,
2013-06-14 14:01:00,59.0,59.0,30.22,NW,304,15.0,26.0,100,0.00,,,0.06,,2013-06-14 21:01:00,
2013-06-14 14:11:00,60.0,60.0,30.22,NW,312,12.0,23.0,100,0.00,,,0.06,,2013-06-14 21:11:00,
2013-06-14 14:22:00,60.0,60.0,30.21,WNW,294,15.0,25.0,100,0.00,,,0.06,,2013-06-14 21:22:00,
2013-06-14 14:34:00,60.0,60.0,30.21,WNW,294,15.0,25.0,100,0.00,,,0.06,,2013-06-14 21:34:00,
2013-06-14 14:42:00,60.0,60.0,30.20,WNW,290,15.0,23.0,100,0.00,,,0.06,,2013-06-14 21:42:00,
2013-06-14 14:52:00,60.0,60.0,30.20,WNW,290,15.0,23.0,100,0.00,,,0.06,,2013-06-14 21:52:00,
2013-06-14 15:22:00,61.0,61.0,30.18,NW,316,15.0,24.0,100,0.00,,,0.06,,2013-06-14 22:22:00,
2013-06-14 15:33:00,61.0,61.0,30.18,NW,316,15.0,24.0,100,0.00,,,0.06,,2013-06-14 22:33:00,
2013-06-14 16:01:00,60.0,60.0,30.17,NW,321,16.0,22.0,100,0.00,,,0.06,,2013-06-14 23:01:00,
2013-06-14 16:11:00,60.0,60.0,30.16,NW,315,13.0,24.0,100,0.00,,,0.00,,2013-06-14 23:11:00,
2013-06-14 16:22:00,60.0,60.0,30.16,NW,315,13.0,24.0,100,0.00,,,0.00,,2013-06-14 23:22:00,
2013-06-14 16:32:00,60.0,60.0,30.16,North,355,16.0,22.0,100,0.00,,,0.00,,2013-06-14 23:32:00,
2013-06-14 16:43:00,60.0,60.0,30.16,NW,314,16.0,22.0,100,0.00,,,0.00,,2013-06-14 23:43:00,
2013-06-14 16:52:00,60.0,60.0,30.16,NW,314,16.0,22.0,100,0.00,,,0.00,,2013-06-14 23:52:00,
2013-06-14 17:01:00,60.0,60.0,30.15,NW,320,15.0,22.0,100,0.00,,,0.00,,2013-06-15 00:01:00,
2013-06-14 17:11:00,60.0,60.0,30.14,NNW,337,15.0,22.0,100,0.00,,,0.00,,2013-06-15 00:11:00,
2013-06-14 17:22:00,60.0,60.0,30.13,WNW,293,11.0,22.0,100,0.00,,,0.00,,2013-06-15 00:22:00,
2013-06-14 17:33:00,60.0,60.0,30.13,WNW,293,11.0,22.0,100,0.00,,,0.00,,2013-06-15 00:33:00,
2013-06-14 17:43:00,60.0,60.0,30.13,NNW,332,14.0,21.0,100,0.00,,,0.00,,2013-06-15 00:43:00,
2013-06-14 18:01:00,60.0,60.0,30.12,NW,307,14.0,21.0,100,0.00,,,0.00,,2013-06-15 01:01:00,
2013-06-14 19:22:00,60.0,60.0,30.09,NW,312,12.0,23.0,100,0.00,,,0.00,,2013-06-15 02:22:00,
2013-06-14 19:42:00,59.0,59.0,30.08,NNW,343,13.0,20.0,100,0.00,,,0.00,,2013-06-15 02:42:00,
2013-06-14 19:53:00,59.0,59.0,30.08,NNW,343,13.0,20.0,100,0.00,,,0.00,,2013-06-15 02:53:00,
2013-06-14 20:01:00,59.0,59.0,30.08,NNW,343,13.0,20.0,100,0.00,,,0.00,,2013-06-15 03:01:00,
2013-06-14 20:11:00,59.0,59.0,30.07,NW,317,11.0,20.0,100,0.00,,,0.00,,2013-06-15 03:11:00,
2013-06-14 20:23:00,58.0,58.0,30.06,NNW,328,8.0,15.0,100,0.00,,,0.00,,2013-06-15 03:23:00,
2013-06-14 20:32:00,58.0,58.0,30.06,NNW,328,8.0,15.0,100,0.00,,,0.00,,2013-06-15 03:32:00,
2013-06-14 20:43:00,58.0,58.0,30.07,WNW,302,6.0,12.0,100,0.00,,,0.00,,2013-06-15 03:43:00,
2013-06-14 20:52:00,58.0,58.0,30.07,WNW,302,6.0,12.0,100,0.00,,,0.00,,2013-06-15 03:52:00,
2013-06-14 21:01:00,58.0,58.0,30.06,NNW,331,5.0,10.0,100,0.00,,,0.00,,2013-06-15 04:01:00,
2013-06-14 21:11:00,58.0,58.0,30.06,WNW,296,4.0,9.0,100,0.00,,,0.00,,2013-06-15 04:11:00,
2013-06-14 21:21:00,58.0,58.0,30.05,NW,304,0.0,3.0,100,0.00,,,0.00,,2013-06-15 04:21:00,
2013-06-14 21:33:00,58.0,58.0,30.05,NW,304,0.0,3.0,100,0.00,,,0.00,,2013-06-15 04:33:00,
2013-06-14 21:43:00,57.0,57.0,30.05,WNW,295,1.0,3.0,100,0.00,,,0.00,,2013-06-15 04:43:00,
2013-06-14 21:53:00,57.0,57.0,30.05,WNW,295,1.0,3.0,100,0.00,,,0.00,,2013-06-15 04:53:00,
2013-06-14 22:02:00,57.0,57.0,30.05,WNW,295,0.0,0.0,100,0.00,,,0.00,,2013-06-15 05:02:00,
2013-06-14 22:12:00,57.0,57.0,30.05,WNW,295,0.0,2.0,100,0.00,,,0.00,,2013-06-15 05:12:00,
2013-06-14 22:22:00,57.0,57.0,30.05,ENE,60,1.0,2.0,100,0.00,,,0.00,,2013-06-15 05:22:00,
2013-06-14 22:34:00,57.0,57.0,30.05,ENE,60,1.0,2.0,100,0.00,,,0.00,,2013-06-15 05:34:00,
2013-06-14 22:42:00,57.0,57.0,30.05,North,355,0.0,2.0,100,0.00,,,0.00,,2013-06-15 05:42:00,
2013-06-14 22:52:00,57.0,57.0,30.05,North,355,0.0,2.0,100,0.00,,,0.00,,2013-06-15 05:52:00,
2013-06-14 23:02:00,56.0,56.0,30.05,WNW,294,1.0,3.0,100,0.00,,,0.00,,2013-06-15 06:02:00,
2013-06-14 23:12:00,56.0,56.0,30.05,NNW,344,2.0,3.0,100,0.00,,,0.00,,2013-06-15 06:12:00,
2013-06-14 23:24:00,55.0,55.0,30.05,NE,43,2.0,4.0,100,0.00,,,0.00,,2013-06-15 06:24:00,
2013-06-14 23:33:00,55.0,55.0,30.05,NE,43,2.0,4.0,100,0.00,,,0.00,,2013-06-15 06:33:00,
2013-06-14 23:43:00,55.0,55.0,30.05,NNE,32,2.0,3.0,100,0.00,,,0.00,,2013-06-15 06:43:00,
2013-06-14 23:52:00,55.0,55.0,30.05,NNE,32,2.0,3.0,100,0.00,,,0.00,,2013-06-15 06:52:00,